sensor_id;sensor_type;location;lat;lon;timestamp;pressure;altitude;pressure_sealevel;temperature;humidity
2192;BME280;1102;49.718;11.902;2023-02-11T00:01:12;98052.31;;;-6.08;100.00
2192;BME280;1102;49.718;11.902;2023-02-11T00:03:42;98038.84;;;-6.24;100.00
2192;BME280;1102;49.718;11.902;2023-02-11T00:06:09;98081.44;;;-6.22;100.00
2192;BME280;1102;49.718;11.902;2023-02-11T00:08:37;98083.41;;;-6.09;100.00
2192;BME280;1102;49.718;11.902;2023-02-11T00:11:04;98065.91;;;-6.14;100.00
2192;BME280;1102;49.718;11.902;2023-02-11T00:13:31;98088.06;;;-5.83;100.00
2192;BME280;1102;49.718;11.902;2023-02-11T00:15:57;98082.97;;;-5.98;100.00
2192;BME280;1102;49.718;11.902;2023-02-11T00:18:24;98035.16;;;-6.45;100.00
2192;BME280;1102;49.718;11.902;2023-02-11T00:20:51;98049.13;;;-6.24;100.00
2192;BME280;1102;49.718;11.902;2023-02-11T00:23:17;98017.28;;;-6.38;100.00
2192;BME280;1102;49.718;11.902;2023-02-11T00:25:44;98065.91;;;-6.14;100.00
2192;BME280;1102;49.718;11.902;2023-02-11T00:28:11;98068.03;;;-6.17;100.00
2192;BME280;1102;49.718;11.902;2023-02-11T00:30:39;97990.97;;;-6.78;100.00
2192;BME280;1102;49.718;11.902;2023-02-11T00:33:06;98017.16;;;-6.45;100.00
2192;BME280;1102;49.718;11.902;2023-02-11T00:35:36;98020.81;;;-6.39;100.00
2192;BME280;1102;49.718;11.902;2023-02-11T00:38:03;98061.63;;;-6.21;100.00
2192;BME280;1102;49.718;11.902;2023-02-11T00:40:30;98012.72;;;-6.51;100.00
2192;BME280;1102;49.718;11.902;2023-02-11T00:42:56;98037.06;;;-6.39;100.00
2192;BME280;1102;49.718;11.902;2023-02-11T00:45:23;98053.97;;;-6.44;100.00
2192;BME280;1102;49.718;11.902;2023-02-11T00:47:50;98035.34;;;-6.84;100.00
2192;BME280;1102;49.718;11.902;2023-02-11T00:50:18;98030.50;;;-6.79;100.00
2192;BME280;1102;49.718;11.902;2023-02-11T00:52:46;98038.50;;;-6.74;100.00
2192;BME280;1102;49.718;11.902;2023-02-11T00:55:14;98020.47;;;-6.89;100.00
2192;BME280;1102;49.718;11.902;2023-02-11T00:57:40;98057.91;;;-6.71;100.00
2192;BME280;1102;49.718;11.902;2023-02-11T01:00:08;98056.53;;;-6.82;100.00
2192;BME280;1102;49.718;11.902;2023-02-11T01:02:38;98008.78;;;-7.14;100.00
2192;BME280;1102;49.718;11.902;2023-02-11T01:05:05;98026.56;;;-6.90;100.00
2192;BME280;1102;49.718;11.902;2023-02-11T01:07:32;98009.25;;;-6.96;100.00
2192;BME280;1102;49.718;11.902;2023-02-11T01:09:59;98000.88;;;-6.90;100.00
2192;BME280;1102;49.718;11.902;2023-02-11T01:12:28;97996.66;;;-7.05;100.00
2192;BME280;1102;49.718;11.902;2023-02-11T01:14:56;98019.09;;;-6.99;100.00
2192;BME280;1102;49.718;11.902;2023-02-11T01:17:23;98004.44;;;-7.13;100.00
2192;BME280;1102;49.718;11.902;2023-02-11T01:19:50;98029.59;;;-7.09;100.00
2192;BME280;1102;49.718;11.902;2023-02-11T01:22:16;98017.72;;;-7.10;100.00
2192;BME280;1102;49.718;11.902;2023-02-11T01:24:45;98012.41;;;-7.08;100.00
2192;BME280;1102;49.718;11.902;2023-02-11T01:27:12;98035.94;;;-6.97;100.00
2192;BME280;1102;49.718;11.902;2023-02-11T01:29:38;98000.63;;;-7.18;100.00
2192;BME280;1102;49.718;11.902;2023-02-11T01:32:05;98021.03;;;-7.01;100.00
2192;BME280;1102;49.718;11.902;2023-02-11T01:34:32;97986.13;;;-6.96;100.00
2192;BME280;1102;49.718;11.902;2023-02-11T01:36:58;98032.75;;;-6.61;100.00
2192;BME280;1102;49.718;11.902;2023-02-11T01:39:27;97939.78;;;-7.02;100.00
2192;BME280;1102;49.718;11.902;2023-02-11T01:41:54;98003.69;;;-6.32;100.00
2192;BME280;1102;49.718;11.902;2023-02-11T01:44:32;98016.72;;;-6.48;100.00
2192;BME280;1102;49.718;11.902;2023-02-11T01:46:59;97990.56;;;-6.52;100.00
2192;BME280;1102;49.718;11.902;2023-02-11T01:49:46;98014.59;;;-6.45;100.00
2192;BME280;1102;49.718;11.902;2023-02-11T01:55:02;97988.09;;;-6.83;100.00
2192;BME280;1102;49.718;11.902;2023-02-11T01:57:56;97938.38;;;-7.28;100.00
2192;BME280;1102;49.718;11.902;2023-02-11T02:00:36;98010.41;;;-6.98;100.00
2192;BME280;1102;49.718;11.902;2023-02-11T02:03:11;98002.13;;;-6.86;100.00
2192;BME280;1102;49.718;11.902;2023-02-11T02:08:38;97999.31;;;-6.61;100.00
2192;BME280;1102;49.718;11.902;2023-02-11T02:11:06;97967.56;;;-6.68;100.00
2192;BME280;1102;49.718;11.902;2023-02-11T02:13:35;97972.72;;;-6.53;100.00
2192;BME280;1102;49.718;11.902;2023-02-11T02:16:10;97981.44;;;-6.40;100.00
2192;BME280;1102;49.718;11.902;2023-02-11T02:38:12;97979.19;;;-6.43;100.00
2192;BME280;1102;49.718;11.902;2023-02-11T02:40:47;97943.34;;;-6.44;100.00
2192;BME280;1102;49.718;11.902;2023-02-11T02:43:16;97971.03;;;-6.32;100.00
2192;BME280;1102;49.718;11.902;2023-02-11T02:45:44;97945.13;;;-6.60;100.00
2192;BME280;1102;49.718;11.902;2023-02-11T02:53:41;97910.72;;;-6.88;100.00
2192;BME280;1102;49.718;11.902;2023-02-11T03:05:17;97939.63;;;-6.42;100.00
2192;BME280;1102;49.718;11.902;2023-02-11T03:07:52;97963.13;;;-6.30;100.00
2192;BME280;1102;49.718;11.902;2023-02-11T03:10:25;97956.03;;;-6.28;100.00
2192;BME280;1102;49.718;11.902;2023-02-11T03:12:53;97927.66;;;-6.49;100.00
2192;BME280;1102;49.718;11.902;2023-02-11T03:15:22;97935.03;;;-6.61;100.00
2192;BME280;1102;49.718;11.902;2023-02-11T03:17:51;97942.47;;;-6.66;100.00
2192;BME280;1102;49.718;11.902;2023-02-11T03:20:21;97944.59;;;-6.55;100.00
2192;BME280;1102;49.718;11.902;2023-02-11T03:22:56;97956.94;;;-6.36;100.00
2192;BME280;1102;49.718;11.902;2023-02-11T03:25:33;97932.44;;;-6.46;100.00
2192;BME280;1102;49.718;11.902;2023-02-11T03:28:13;97938.38;;;-6.31;100.00
2192;BME280;1102;49.718;11.902;2023-02-11T03:30:48;97921.47;;;-6.40;100.00
2192;BME280;1102;49.718;11.902;2023-02-11T03:33:26;97938.66;;;-6.26;100.00
2192;BME280;1102;49.718;11.902;2023-02-11T03:36:02;97941.69;;;-6.37;100.00
2192;BME280;1102;49.718;11.902;2023-02-11T03:38:36;97932.72;;;-6.41;100.00
2192;BME280;1102;49.718;11.902;2023-02-11T03:41:06;97886.97;;;-6.61;100.00
2192;BME280;1102;49.718;11.902;2023-02-11T03:43:37;97878.81;;;-6.64;100.00
2192;BME280;1102;49.718;11.902;2023-02-11T03:46:07;97851.53;;;-6.80;100.00
2192;BME280;1102;49.718;11.902;2023-02-11T03:48:39;97929.63;;;-6.37;100.00
2192;BME280;1102;49.718;11.902;2023-02-11T03:51:09;97898.16;;;-6.53;100.00
2192;BME280;1102;49.718;11.902;2023-02-11T03:53:39;97921.50;;;-6.19;100.00
2192;BME280;1102;49.718;11.902;2023-02-11T03:56:09;97879.56;;;-6.34;100.00
2192;BME280;1102;49.718;11.902;2023-02-11T03:58:37;97877.53;;;-6.39;100.00
2192;BME280;1102;49.718;11.902;2023-02-11T04:01:05;97918.88;;;-6.26;100.00
2192;BME280;1102;49.718;11.902;2023-02-11T04:03:35;97910.06;;;-6.16;100.00
2192;BME280;1102;49.718;11.902;2023-02-11T04:06:02;97911.63;;;-6.01;100.00
2192;BME280;1102;49.718;11.902;2023-02-11T04:08:29;97890.91;;;-6.14;100.00
2192;BME280;1102;49.718;11.902;2023-02-11T04:10:57;97907.47;;;-6.16;100.00
2192;BME280;1102;49.718;11.902;2023-02-11T04:13:24;97870.47;;;-6.51;100.00
2192;BME280;1102;49.718;11.902;2023-02-11T04:15:51;97920.47;;;-6.39;100.00
2192;BME280;1102;49.718;11.902;2023-02-11T04:18:18;97884.94;;;-6.80;100.00
2192;BME280;1102;49.718;11.902;2023-02-11T04:20:45;97871.72;;;-6.77;100.00
2192;BME280;1102;49.718;11.902;2023-02-11T04:23:11;97844.25;;;-6.91;100.00
2192;BME280;1102;49.718;11.902;2023-02-11T04:25:38;97897.34;;;-6.54;100.00
2192;BME280;1102;49.718;11.902;2023-02-11T04:28:05;97858.50;;;-6.74;100.00
2192;BME280;1102;49.718;11.902;2023-02-11T04:30:31;97842.31;;;-6.38;100.00
2192;BME280;1102;49.718;11.902;2023-02-11T04:32:58;97882.16;;;-5.98;100.00
2192;BME280;1102;49.718;11.902;2023-02-11T04:35:25;97859.88;;;-6.06;100.00
2192;BME280;1102;49.718;11.902;2023-02-11T04:37:51;97873.75;;;-6.07;100.00
2192;BME280;1102;49.718;11.902;2023-02-11T04:40:18;97833.47;;;-6.50;100.00
2192;BME280;1102;49.718;11.902;2023-02-11T04:42:44;97800.25;;;-6.67;100.00
2192;BME280;1102;49.718;11.902;2023-02-11T04:45:11;97857.31;;;-6.06;100.00
2192;BME280;1102;49.718;11.902;2023-02-11T04:47:38;97817.22;;;-6.15;100.00
2192;BME280;1102;49.718;11.902;2023-02-11T04:50:04;97826.94;;;-6.32;100.00
2192;BME280;1102;49.718;11.902;2023-02-11T04:52:31;97820.63;;;-6.50;100.00
2192;BME280;1102;49.718;11.902;2023-02-11T04:54:58;97826.38;;;-6.48;100.00
2192;BME280;1102;49.718;11.902;2023-02-11T04:57:25;97827.72;;;-6.52;100.00
2192;BME280;1102;49.718;11.902;2023-02-11T04:59:51;97859.50;;;-6.24;100.00
2192;BME280;1102;49.718;11.902;2023-02-11T05:02:18;97860.66;;;-6.27;100.00
2192;BME280;1102;49.718;11.902;2023-02-11T05:04:45;97860.91;;;-6.21;100.00
2192;BME280;1102;49.718;11.902;2023-02-11T05:07:12;97844.53;;;-6.35;100.00
2192;BME280;1102;49.718;11.902;2023-02-11T05:09:38;97817.53;;;-6.61;100.00
2192;BME280;1102;49.718;11.902;2023-02-11T05:12:05;97832.75;;;-6.44;100.00
2192;BME280;1102;49.718;11.902;2023-02-11T05:14:32;97824.84;;;-6.43;100.00
2192;BME280;1102;49.718;11.902;2023-02-11T05:16:58;97824.84;;;-6.43;100.00
2192;BME280;1102;49.718;11.902;2023-02-11T05:19:25;97830.63;;;-6.41;100.00
2192;BME280;1102;49.718;11.902;2023-02-11T05:21:52;97824.78;;;-6.13;100.00
2192;BME280;1102;49.718;11.902;2023-02-11T05:24:31;97801.19;;;-5.96;100.00
2192;BME280;1102;49.718;11.902;2023-02-11T05:26:58;97841.50;;;-5.53;100.00
2192;BME280;1102;49.718;11.902;2023-02-11T05:29:24;97859.44;;;-5.67;100.00
2192;BME280;1102;49.718;11.902;2023-02-11T05:31:51;97820.56;;;-6.00;100.00
2192;BME280;1102;49.718;11.902;2023-02-11T05:34:18;97806.03;;;-6.07;100.00
2192;BME280;1102;49.718;11.902;2023-02-11T05:36:44;97828.00;;;-6.05;100.00
2192;BME280;1102;49.718;11.902;2023-02-11T05:39:11;97833.91;;;-6.11;100.00
2192;BME280;1102;49.718;11.902;2023-02-11T05:41:38;97869.47;;;-6.00;100.00
2192;BME280;1102;49.718;11.902;2023-02-11T05:44:04;97835.06;;;-6.13;100.00
2192;BME280;1102;49.718;11.902;2023-02-11T05:46:31;97829.94;;;-6.28;100.00
2192;BME280;1102;49.718;11.902;2023-02-11T05:48:58;97851.75;;;-6.09;100.00
2192;BME280;1102;49.718;11.902;2023-02-11T05:51:24;97875.84;;;-5.74;100.00
2192;BME280;1102;49.718;11.902;2023-02-11T05:53:51;97836.81;;;-5.71;100.00
2192;BME280;1102;49.718;11.902;2023-02-11T05:56:18;97851.41;;;-5.57;100.00
2192;BME280;1102;49.718;11.902;2023-02-11T05:58:45;97848.25;;;-5.52;100.00
2192;BME280;1102;49.718;11.902;2023-02-11T06:01:11;97852.16;;;-5.35;100.00
2192;BME280;1102;49.718;11.902;2023-02-11T06:03:38;97836.75;;;-5.56;100.00
2192;BME280;1102;49.718;11.902;2023-02-11T06:06:09;97828.53;;;-5.67;100.00
2192;BME280;1102;49.718;11.902;2023-02-11T06:08:36;97845.47;;;-5.29;100.00
2192;BME280;1102;49.718;11.902;2023-02-11T06:11:04;97864.53;;;-5.24;100.00
2192;BME280;1102;49.718;11.902;2023-02-11T06:13:31;97874.63;;;-5.29;100.00
2192;BME280;1102;49.718;11.902;2023-02-11T06:15:59;97863.69;;;-5.31;100.00
2192;BME280;1102;49.718;11.902;2023-02-11T06:18:26;97807.25;;;-5.75;100.00
2192;BME280;1102;49.718;11.902;2023-02-11T06:20:54;97862.47;;;-5.35;100.00
2192;BME280;1102;49.718;11.902;2023-02-11T06:23:21;97857.97;;;-5.26;100.00
2192;BME280;1102;49.718;11.902;2023-02-11T06:25:48;97831.00;;;-5.30;100.00
2192;BME280;1102;49.718;11.902;2023-02-11T06:28:15;97811.28;;;-5.10;100.00
2192;BME280;1102;49.718;11.902;2023-02-11T06:30:42;97822.75;;;-5.19;100.00
2192;BME280;1102;49.718;11.902;2023-02-11T06:33:08;97837.34;;;-5.26;100.00
2192;BME280;1102;49.718;11.902;2023-02-11T06:35:37;97831.28;;;-5.47;100.00
2192;BME280;1102;49.718;11.902;2023-02-11T06:38:04;97833.88;;;-5.40;100.00
2192;BME280;1102;49.718;11.902;2023-02-11T06:40:31;97839.72;;;-5.31;100.00
2192;BME280;1102;49.718;11.902;2023-02-11T06:42:57;97848.84;;;-4.94;100.00
2192;BME280;1102;49.718;11.902;2023-02-11T06:45:24;97842.81;;;-4.80;100.00
2192;BME280;1102;49.718;11.902;2023-02-11T06:47:50;97825.41;;;-5.06;100.00
2192;BME280;1102;49.718;11.902;2023-02-11T06:50:18;97830.31;;;-5.11;100.00
2192;BME280;1102;49.718;11.902;2023-02-11T06:52:44;97840.22;;;-5.15;100.00
2192;BME280;1102;49.718;11.902;2023-02-11T06:55:11;97834.84;;;-5.20;100.00
2192;BME280;1102;49.718;11.902;2023-02-11T06:57:38;97855.09;;;-5.10;100.00
2192;BME280;1102;49.718;11.902;2023-02-11T07:00:05;97881.22;;;-4.92;100.00
2192;BME280;1102;49.718;11.902;2023-02-11T07:02:32;97873.19;;;-4.69;100.00
2192;BME280;1102;49.718;11.902;2023-02-11T07:04:58;97864.78;;;-4.84;100.00
2192;BME280;1102;49.718;11.902;2023-02-11T07:07:26;97883.13;;;-4.72;100.00
2192;BME280;1102;49.718;11.902;2023-02-11T07:09:53;97850.16;;;-4.77;100.00
2192;BME280;1102;49.718;11.902;2023-02-11T07:12:19;97867.19;;;-4.83;100.00
2192;BME280;1102;49.718;11.902;2023-02-11T07:14:46;97859.69;;;-4.78;100.00
2192;BME280;1102;49.718;11.902;2023-02-11T07:17:12;97888.53;;;-4.61;100.00
2192;BME280;1102;49.718;11.902;2023-02-11T07:19:39;97871.13;;;-4.52;100.00
2192;BME280;1102;49.718;11.902;2023-02-11T07:22:06;97871.63;;;-4.22;100.00
2192;BME280;1102;49.718;11.902;2023-02-11T07:24:33;97877.59;;;-4.22;100.00
2192;BME280;1102;49.718;11.902;2023-02-11T07:26:59;97883.91;;;-4.31;100.00
2192;BME280;1102;49.718;11.902;2023-02-11T07:29:26;97836.34;;;-4.56;100.00
2192;BME280;1102;49.718;11.902;2023-02-11T07:31:52;97881.91;;;-4.35;100.00
2192;BME280;1102;49.718;11.902;2023-02-11T07:34:19;97865.00;;;-4.44;100.00
2192;BME280;1102;49.718;11.902;2023-02-11T07:36:46;97850.28;;;-4.44;100.00
2192;BME280;1102;49.718;11.902;2023-02-11T07:39:14;97854.13;;;-4.33;100.00
2192;BME280;1102;49.718;11.902;2023-02-11T07:41:41;97895.28;;;-4.19;100.00
2192;BME280;1102;49.718;11.902;2023-02-11T07:44:10;97882.31;;;-4.32;100.00
2192;BME280;1102;49.718;11.902;2023-02-11T07:46:36;97870.59;;;-4.28;100.00
2192;BME280;1102;49.718;11.902;2023-02-11T07:49:08;97907.84;;;-4.02;100.00
2192;BME280;1102;49.718;11.902;2023-02-11T07:51:35;97903.91;;;-3.98;100.00
2192;BME280;1102;49.718;11.902;2023-02-11T07:54:02;97905.88;;;-3.94;100.00
2192;BME280;1102;49.718;11.902;2023-02-11T07:56:29;97915.81;;;-3.91;100.00
2192;BME280;1102;49.718;11.902;2023-02-11T07:58:59;97894.75;;;-3.94;100.00
2192;BME280;1102;49.718;11.902;2023-02-11T08:01:27;97898.16;;;-3.87;100.00
2192;BME280;1102;49.718;11.902;2023-02-11T08:03:56;97906.91;;;-3.75;100.00
2192;BME280;1102;49.718;11.902;2023-02-11T08:06:24;97875.16;;;-3.69;100.00
2192;BME280;1102;49.718;11.902;2023-02-11T08:08:51;97898.03;;;-3.39;100.00
2192;BME280;1102;49.718;11.902;2023-02-11T08:11:26;97900.81;;;-3.34;100.00
2192;BME280;1102;49.718;11.902;2023-02-11T08:13:55;97916.13;;;-3.26;100.00
2192;BME280;1102;49.718;11.902;2023-02-11T08:16:31;97904.81;;;-3.12;100.00
2192;BME280;1102;49.718;11.902;2023-02-11T08:19:00;97897.25;;;-3.07;100.00
2192;BME280;1102;49.718;11.902;2023-02-11T08:21:27;97872.56;;;-3.16;100.00
2192;BME280;1102;49.718;11.902;2023-02-11T08:23:55;97898.00;;;-2.86;100.00
2192;BME280;1102;49.718;11.902;2023-02-11T08:26:24;97891.63;;;-2.77;100.00
2192;BME280;1102;49.718;11.902;2023-02-11T08:28:53;97898.81;;;-2.79;100.00
2192;BME280;1102;49.718;11.902;2023-02-11T08:31:28;97908.38;;;-2.86;100.00
2192;BME280;1102;49.718;11.902;2023-02-11T08:33:56;97896.44;;;-2.87;100.00
2192;BME280;1102;49.718;11.902;2023-02-11T08:36:28;97894.78;;;-2.62;100.00
2192;BME280;1102;49.718;11.902;2023-02-11T08:38:56;97892.53;;;-2.45;100.00
2192;BME280;1102;49.718;11.902;2023-02-11T08:41:44;97879.63;;;-2.52;100.00
2192;BME280;1102;49.718;11.902;2023-02-11T08:44:11;97817.41;;;-2.97;100.00
2192;BME280;1102;49.718;11.902;2023-02-11T08:46:38;97877.63;;;-2.50;100.00
2192;BME280;1102;49.718;11.902;2023-02-11T08:49:04;97878.75;;;-2.32;100.00
2192;BME280;1102;49.718;11.902;2023-02-11T08:51:31;97876.22;;;-2.39;100.00
2192;BME280;1102;49.718;11.902;2023-02-11T08:53:59;97891.66;;;-2.19;100.00
2192;BME280;1102;49.718;11.902;2023-02-11T08:56:26;97901.69;;;-1.91;100.00
2192;BME280;1102;49.718;11.902;2023-02-11T08:58:53;97880.38;;;-1.93;100.00
2192;BME280;1102;49.718;11.902;2023-02-11T09:01:27;97902.19;;;-1.76;100.00
2192;BME280;1102;49.718;11.902;2023-02-11T09:03:55;97895.28;;;-1.82;100.00
2192;BME280;1102;49.718;11.902;2023-02-11T09:06:23;97884.31;;;-1.84;100.00
2192;BME280;1102;49.718;11.902;2023-02-11T09:08:52;97866.50;;;-1.74;100.00
2192;BME280;1102;49.718;11.902;2023-02-11T09:11:23;97888.28;;;-1.50;100.00
2192;BME280;1102;49.718;11.902;2023-02-11T09:13:50;97851.28;;;-1.64;100.00
2192;BME280;1102;49.718;11.902;2023-02-11T09:16:22;97872.34;;;-1.54;100.00
2192;BME280;1102;49.718;11.902;2023-02-11T09:18:49;97892.84;;;-1.45;100.00
2192;BME280;1102;49.718;11.902;2023-02-11T09:21:17;97880.06;;;-1.47;100.00
2192;BME280;1102;49.718;11.902;2023-02-11T09:23:45;97888.63;;;-1.40;100.00
2192;BME280;1102;49.718;11.902;2023-02-11T09:26:17;97884.09;;;-1.20;100.00
2192;BME280;1102;49.718;11.902;2023-02-11T09:28:45;97885.78;;;-1.07;100.00
2192;BME280;1102;49.718;11.902;2023-02-11T09:31:14;97891.44;;;-1.16;100.00
2192;BME280;1102;49.718;11.902;2023-02-11T09:33:43;97882.53;;;-1.27;100.00
2192;BME280;1102;49.718;11.902;2023-02-11T09:36:19;97877.59;;;-1.10;100.00
2192;BME280;1102;49.718;11.902;2023-02-11T09:38:46;97886.13;;;-1.03;100.00
2192;BME280;1102;49.718;11.902;2023-02-11T09:43:55;97900.03;;;-0.73;100.00
2192;BME280;1102;49.718;11.902;2023-02-11T09:46:23;97903.72;;;-0.62;100.00
2192;BME280;1102;49.718;11.902;2023-02-11T09:48:53;97894.19;;;-0.68;100.00
2192;BME280;1102;49.718;11.902;2023-02-11T09:54:04;97882.81;;;-0.49;100.00
2192;BME280;1102;49.718;11.902;2023-02-11T09:56:35;97897.16;;;-0.28;100.00
2192;BME280;1102;49.718;11.902;2023-02-11T09:59:03;97869.81;;;-0.49;100.00
2192;BME280;1102;49.718;11.902;2023-02-11T10:01:46;97899.19;;;-0.30;100.00
2192;BME280;1102;49.718;11.902;2023-02-11T10:06:52;97891.25;;;-0.35;100.00
2192;BME280;1102;49.718;11.902;2023-02-11T10:17:41;97926.34;;;-0.26;100.00
2192;BME280;1102;49.718;11.902;2023-02-11T10:20:38;97930.66;;;-0.38;100.00
2192;BME280;1102;49.718;11.902;2023-02-11T10:23:16;97934.53;;;-0.29;100.00
2192;BME280;1102;49.718;11.902;2023-02-11T10:25:46;97917.38;;;-0.48;100.00
2192;BME280;1102;49.718;11.902;2023-02-11T10:28:20;97923.88;;;-0.21;100.00
2192;BME280;1102;49.718;11.902;2023-02-11T10:33:23;97930.06;;;0.15;100.00
2192;BME280;1102;49.718;11.902;2023-02-11T10:35:52;97905.41;;;0.17;100.00
2192;BME280;1102;49.718;11.902;2023-02-11T10:38:18;97943.84;;;0.45;100.00
2192;BME280;1102;49.718;11.902;2023-02-11T10:40:45;97953.59;;;0.50;100.00
2192;BME280;1102;49.718;11.902;2023-02-11T10:43:16;97945.13;;;0.54;100.00
2192;BME280;1102;49.718;11.902;2023-02-11T10:45:46;97911.69;;;0.40;100.00
2192;BME280;1102;49.718;11.902;2023-02-11T10:51:25;97955.22;;;0.63;100.00
2192;BME280;1102;49.718;11.902;2023-02-11T10:56:35;97914.22;;;0.46;100.00
2192;BME280;1102;49.718;11.902;2023-02-11T11:01:49;97938.38;;;0.77;100.00
2192;BME280;1102;49.718;11.902;2023-02-11T11:06:56;97928.13;;;0.82;100.00
2192;BME280;1102;49.718;11.902;2023-02-11T11:09:29;97938.19;;;0.90;100.00
2192;BME280;1102;49.718;11.902;2023-02-11T11:11:56;97901.84;;;0.72;100.00
2192;BME280;1102;49.718;11.902;2023-02-11T11:14:23;97934.59;;;1.03;100.00
2192;BME280;1102;49.718;11.902;2023-02-11T11:16:54;97933.94;;;1.07;100.00
2192;BME280;1102;49.718;11.902;2023-02-11T11:19:24;97926.22;;;1.12;100.00
2192;BME280;1102;49.718;11.902;2023-02-11T11:21:52;97919.53;;;1.16;100.00
2192;BME280;1102;49.718;11.902;2023-02-11T11:24:33;97925.91;;;1.21;100.00
2192;BME280;1102;49.718;11.902;2023-02-11T11:27:05;97898.59;;;1.00;100.00
2192;BME280;1102;49.718;11.902;2023-02-11T11:29:38;97870.75;;;1.00;100.00
2192;BME280;1102;49.718;11.902;2023-02-11T11:32:15;97906.19;;;1.25;100.00
2192;BME280;1102;49.718;11.902;2023-02-11T11:34:51;97921.34;;;1.28;100.00
2192;BME280;1102;49.718;11.902;2023-02-11T11:37:31;97915.44;;;1.32;100.00
2192;BME280;1102;49.718;11.902;2023-02-11T11:40:09;97920.66;;;1.32;100.00
2192;BME280;1102;49.718;11.902;2023-02-11T11:42:37;97912.53;;;1.40;100.00
2192;BME280;1102;49.718;11.902;2023-02-11T11:48:00;97911.41;;;1.48;100.00
2192;BME280;1102;49.718;11.902;2023-02-11T11:50:34;97867.22;;;1.30;100.00
2192;BME280;1102;49.718;11.902;2023-02-11T11:56:05;97905.03;;;1.56;100.00
2192;BME280;1102;49.718;11.902;2023-02-11T11:58:35;97881.47;;;1.51;100.00
2192;BME280;1102;49.718;11.902;2023-02-11T12:04:16;97890.88;;;1.52;100.00
2192;BME280;1102;49.718;11.902;2023-02-11T12:15:51;97884.28;;;1.61;100.00
2192;BME280;1102;49.718;11.902;2023-02-11T12:21:24;97904.63;;;1.87;100.00
2192;BME280;1102;49.718;11.902;2023-02-11T12:26:51;97895.53;;;2.01;100.00
2192;BME280;1102;49.718;11.902;2023-02-11T12:29:44;97888.09;;;1.82;100.00
2192;BME280;1102;49.718;11.902;2023-02-11T12:44:15;97867.91;;;1.89;100.00
2192;BME280;1102;49.718;11.902;2023-02-11T12:55:03;97870.50;;;1.89;100.00
2192;BME280;1102;49.718;11.902;2023-02-11T12:57:35;97857.97;;;2.02;100.00
2192;BME280;1102;49.718;11.902;2023-02-11T13:05:30;97865.56;;;2.04;100.00
2192;BME280;1102;49.718;11.902;2023-02-11T13:08:09;97857.75;;;2.04;100.00
2192;BME280;1102;49.718;11.902;2023-02-11T13:10:40;97835.22;;;1.86;100.00
2192;BME280;1102;49.718;11.902;2023-02-11T13:13:20;97834.13;;;1.82;100.00
2192;BME280;1102;49.718;11.902;2023-02-11T13:15:54;97857.81;;;2.09;100.00
2192;BME280;1102;49.718;11.902;2023-02-11T13:21:18;97851.06;;;2.25;100.00
2192;BME280;1102;49.718;11.902;2023-02-11T13:26:52;97852.78;;;2.19;100.00
2192;BME280;1102;49.718;11.902;2023-02-11T13:31:55;97835.97;;;1.98;100.00
2192;BME280;1102;49.718;11.902;2023-02-11T13:34:57;97804.53;;;1.88;100.00
2192;BME280;1102;49.718;11.902;2023-02-11T13:40:02;97865.19;;;2.41;100.00
2192;BME280;1102;49.718;11.902;2023-02-11T13:42:32;97842.16;;;2.09;100.00
2192;BME280;1102;49.718;11.902;2023-02-11T13:45:00;97853.16;;;2.11;100.00
2192;BME280;1102;49.718;11.902;2023-02-11T13:47:36;97848.28;;;2.15;100.00
2192;BME280;1102;49.718;11.902;2023-02-11T13:50:05;97844.97;;;2.19;100.00
2192;BME280;1102;49.718;11.902;2023-02-11T13:52:36;97847.28;;;2.32;100.00
2192;BME280;1102;49.718;11.902;2023-02-11T13:55:19;97815.06;;;2.10;100.00
2192;BME280;1102;49.718;11.902;2023-02-11T14:14:37;97877.44;;;2.12;100.00
2192;BME280;1102;49.718;11.902;2023-02-11T14:27:16;97823.31;;;1.62;100.00
2192;BME280;1102;49.718;11.902;2023-02-11T14:30:22;97848.63;;;1.90;100.00
2192;BME280;1102;49.718;11.902;2023-02-11T14:41:33;97865.59;;;1.92;100.00
2192;BME280;1102;49.718;11.902;2023-02-11T14:44:03;97859.91;;;1.95;100.00
2192;BME280;1102;49.718;11.902;2023-02-11T14:46:32;97852.69;;;1.86;100.00
2192;BME280;1102;49.718;11.902;2023-02-11T14:49:00;97840.28;;;1.76;100.00
2192;BME280;1102;49.718;11.902;2023-02-11T14:51:37;97853.47;;;1.86;100.00
2192;BME280;1102;49.718;11.902;2023-02-11T14:54:20;97779.06;;;1.38;100.00
2192;BME280;1102;49.718;11.902;2023-02-11T14:57:06;97857.16;;;1.73;100.00
2192;BME280;1102;49.718;11.902;2023-02-11T14:59:33;97861.13;;;1.76;100.00
2192;BME280;1102;49.718;11.902;2023-02-11T15:02:00;97842.34;;;1.62;100.00
2192;BME280;1102;49.718;11.902;2023-02-11T15:04:29;97839.44;;;1.47;100.00
2192;BME280;1102;49.718;11.902;2023-02-11T15:06:58;97871.09;;;1.79;100.00
2192;BME280;1102;49.718;11.902;2023-02-11T15:09:47;97861.63;;;1.61;100.00
2192;BME280;1102;49.718;11.902;2023-02-11T15:12:22;97835.94;;;1.41;100.00
2192;BME280;1102;49.718;11.902;2023-02-11T15:14:54;97859.38;;;1.53;100.00
2192;BME280;1102;49.718;11.902;2023-02-11T15:17:25;97897.28;;;1.72;100.00
2192;BME280;1102;49.718;11.902;2023-02-11T15:19:56;97863.22;;;1.51;100.00
2192;BME280;1102;49.718;11.902;2023-02-11T15:22:27;97848.38;;;1.51;100.00
2192;BME280;1102;49.718;11.902;2023-02-11T15:27:39;97867.72;;;1.67;100.00
2192;BME280;1102;49.718;11.902;2023-02-11T15:30:23;97872.25;;;1.60;100.00
2192;BME280;1102;49.718;11.902;2023-02-11T15:32:52;97852.81;;;1.51;100.00
2192;BME280;1102;49.718;11.902;2023-02-11T15:35:32;97888.34;;;1.68;100.00
2192;BME280;1102;49.718;11.902;2023-02-11T15:38:00;97879.19;;;1.54;100.00
2192;BME280;1102;49.718;11.902;2023-02-11T15:40:35;97885.09;;;1.61;100.00
2192;BME280;1102;49.718;11.902;2023-02-11T15:43:08;97852.91;;;1.44;100.00
2192;BME280;1102;49.718;11.902;2023-02-11T15:45:53;97880.53;;;1.57;100.00
2192;BME280;1102;49.718;11.902;2023-02-11T15:48:25;97886.13;;;1.48;100.00
2192;BME280;1102;49.718;11.902;2023-02-11T15:50:58;97874.56;;;1.44;100.00
2192;BME280;1102;49.718;11.902;2023-02-11T15:53:38;97881.00;;;1.54;100.00
2192;BME280;1102;49.718;11.902;2023-02-11T15:58:43;97805.06;;;0.86;100.00
2192;BME280;1102;49.718;11.902;2023-02-11T16:01:11;97835.84;;;0.89;100.00
2192;BME280;1102;49.718;11.902;2023-02-11T16:03:39;97886.59;;;1.22;100.00
2192;BME280;1102;49.718;11.902;2023-02-11T16:11:29;97876.28;;;1.39;100.00
2192;BME280;1102;49.718;11.902;2023-02-11T16:13:57;97882.50;;;1.38;100.00